Time;durP1;ratioP1;P1;durP2;ratioP2;P2;SDS_P1;SDS_P2;PMS_P1;PMS_P2;Temp;Humidity;BMP_temperature;BMP_pressure;BME280_temperature;BME280_humidity;BME280_pressure;Samples;Min_cycle;Max_cycle;Signal;HPM_P1;HPM_P2
2023/03/31 00:00:59;;;;;;;15.03;2.53;;;13.80;99.90;;;;;;5031925;28;20029;-82
2023/03/31 00:03:26;;;;;;;23.25;2.80;;;13.80;99.90;;;;;;5032379;28;20276;-81
2023/03/31 00:06:00;;;;;;;23.10;2.80;;;13.80;99.90;;;;;;5038551;28;20158;-81
2023/03/31 00:08:34;;;;;;;21.23;2.50;;;13.80;99.90;;;;;;5032139;28;20040;-79
2023/03/31 00:11:02;;;;;;;16.90;2.25;;;13.80;99.90;;;;;;5050379;28;20041;-81
2023/03/31 00:13:29;;;;;;;15.18;2.10;;;13.70;99.90;;;;;;5051843;28;20032;-80
2023/03/31 00:16:13;;;;;;;15.35;2.47;;;13.80;99.90;;;;;;5033844;28;20021;-81
2023/03/31 00:18:49;;;;;;;13.50;2.53;;;13.90;99.90;;;;;;5052014;28;20025;-80
2023/03/31 00:21:28;;;;;;;14.98;2.42;;;13.90;99.90;;;;;;5035588;28;20040;-81
2023/03/31 00:23:57;;;;;;;13.57;2.08;;;14.00;99.90;;;;;;5051690;28;20029;-80
2023/03/31 00:26:25;;;;;;;15.10;2.40;;;13.90;99.90;;;;;;5051403;28;20066;-81
2023/03/31 00:28:52;;;;;;;15.82;2.65;;;13.90;99.90;;;;;;5052096;28;20445;-82
2023/03/31 00:31:19;;;;;;;16.02;2.70;;;13.90;99.90;;;;;;5033658;28;20426;-82
2023/03/31 00:33:45;;;;;;;17.33;2.95;;;13.90;99.90;;;;;;5051578;28;20147;-81
2023/03/31 00:36:11;;;;;;;20.37;2.40;;;13.90;99.90;;;;;;5051606;28;20029;-82
2023/03/31 00:38:37;;;;;;;13.60;2.27;;;13.90;99.90;;;;;;5033706;28;20695;-82
2023/03/31 00:41:05;;;;;;;19.90;2.40;;;13.90;99.90;;;;;;5051555;28;20263;-80
2023/03/31 00:44:05;;;;;;;10.45;2.15;;;13.80;99.90;;;;;;5051317;28;20143;-82
2023/03/31 00:46:54;;;;;;;17.60;2.45;;;13.90;99.90;;;;;;5023162;28;20087;-82
2023/03/31 00:49:46;;;;;;;14.18;2.83;;;13.90;99.90;;;;;;5051683;28;20132;-80
2023/03/31 00:52:20;;;;;;;19.25;2.60;;;13.90;99.90;;;;;;5051695;28;20111;-78
2023/03/31 00:54:56;;;;;;;13.25;2.50;;;13.90;99.90;;;;;;5051723;28;20052;-82
2023/03/31 00:57:23;;;;;;;15.20;2.13;;;13.90;99.90;;;;;;5033295;28;20025;-81
2023/03/31 00:59:54;;;;;;;20.25;3.65;;;13.70;99.90;;;;;;5051403;28;20453;-80
2023/03/31 01:02:24;;;;;;;18.38;2.55;;;13.50;99.90;;;;;;5051247;28;20021;-80
2023/03/31 01:04:58;;;;;;;14.73;2.63;;;13.40;99.90;;;;;;5051544;28;20075;-81
2023/03/31 01:07:41;;;;;;;10.15;2.05;;;13.50;99.90;;;;;;5041208;28;20033;-82
2023/03/31 01:10:09;;;;;;;18.50;2.40;;;13.40;99.90;;;;;;5034307;28;20057;-80
2023/03/31 01:12:39;;;;;;;19.63;2.67;;;13.20;99.90;;;;;;5000655;28;20103;-81
2023/03/31 01:15:06;;;;;;;17.08;2.67;;;13.10;99.90;;;;;;5016883;28;20252;-81
2023/03/31 01:17:33;;;;;;;18.25;2.67;;;13.20;99.90;;;;;;5034381;28;20036;-81
2023/03/31 01:20:14;;;;;;;;;;;13.20;99.90;;;;;;5035219;28;20033;-79
2023/03/31 01:22:48;;;;;;;11.45;2.05;;;13.20;99.90;;;;;;5034860;28;19931;-79
2023/03/31 01:25:26;;;;;;;15.43;2.35;;;13.30;99.90;;;;;;5016487;28;20075;-80
2023/03/31 01:28:17;;;;;;;12.77;2.40;;;13.30;99.90;;;;;;5016616;28;20374;-79
2023/03/31 01:31:03;;;;;;;17.45;2.40;;;13.20;99.90;;;;;;5034327;28;20026;-80
2023/03/31 01:33:54;;;;;;;14.65;2.22;;;13.20;99.90;;;;;;5016543;28;20030;-80
2023/03/31 01:36:49;;;;;;;15.32;2.20;;;13.10;99.90;;;;;;5038916;28;20017;-80
2023/03/31 01:39:29;;;;;;;15.27;2.30;;;13.10;99.90;;;;;;4992622;28;20042;-81
2023/03/31 01:42:11;;;;;;;17.25;2.63;;;13.10;99.90;;;;;;4992889;28;20109;-81
2023/03/31 01:44:58;;;;;;;14.32;2.50;;;13.10;99.90;;;;;;4992995;28;20050;-80
2023/03/31 01:47:30;;;;;;;13.93;2.53;;;13.10;99.90;;;;;;4992418;28;20050;-82
2023/03/31 01:50:21;;;;;;;14.63;2.53;;;13.10;99.90;;;;;;4992904;28;20061;-81
2023/03/31 01:52:57;;;;;;;17.00;2.00;;;13.10;99.90;;;;;;4992431;28;20038;-81
2023/03/31 01:55:57;;;;;;;12.43;2.13;;;13.20;99.90;;;;;;4992548;28;20049;-80
2023/03/31 01:58:31;;;;;;;14.30;2.50;;;13.30;99.90;;;;;;4988714;28;20038;-80
2023/03/31 02:01:19;;;;;;;19.58;2.40;;;13.40;99.90;;;;;;4992838;28;20018;-81
2023/03/31 02:03:55;;;;;;;17.63;2.50;;;13.50;99.90;;;;;;4992468;28;20117;-81
2023/03/31 02:06:27;;;;;;;15.30;2.10;;;13.50;99.90;;;;;;4992360;28;20483;-80
2023/03/31 02:09:00;;;;;;;15.85;2.42;;;13.50;99.90;;;;;;4992307;28;20398;-81
2023/03/31 02:11:29;;;;;;;15.10;2.70;;;13.60;99.90;;;;;;4992106;28;20054;-80
2023/03/31 02:14:00;;;;;;;13.25;2.13;;;13.50;99.90;;;;;;4992403;28;20030;-81
2023/03/31 02:16:31;;;;;;;17.02;3.05;;;13.50;99.90;;;;;;5006407;28;20033;-81
2023/03/31 02:19:04;;;;;;;17.88;2.33;;;13.40;99.90;;;;;;5013863;28;20042;-79
2023/03/31 02:21:38;;;;;;;19.30;2.50;;;13.40;99.90;;;;;;5013746;28;20022;-81
2023/03/31 02:24:10;;;;;;;16.17;2.55;;;13.50;99.90;;;;;;5013929;28;20423;-81
2023/03/31 02:26:41;;;;;;;18.52;3.05;;;13.60;99.90;;;;;;5014014;28;20026;-81
2023/03/31 02:29:08;;;;;;;11.50;2.38;;;13.70;99.90;;;;;;5011981;28;20089;-80
2023/03/31 02:31:47;;;;;;;17.15;2.42;;;13.70;99.90;;;;;;5013044;28;20097;-82
2023/03/31 02:34:13;;;;;;;16.48;2.70;;;13.80;99.90;;;;;;5012450;28;20331;-81
2023/03/31 02:36:41;;;;;;;21.13;3.10;;;13.80;99.90;;;;;;5021033;28;20576;-81
2023/03/31 02:39:19;;;;;;;14.90;2.55;;;13.90;99.90;;;;;;5033042;28;20056;-82
2023/03/31 02:41:50;;;;;;;16.88;3.25;;;13.90;99.90;;;;;;5033312;28;20025;-81
2023/03/31 02:44:17;;;;;;;17.95;3.03;;;14.00;99.90;;;;;;5034148;28;20022;-81
2023/03/31 02:46:44;;;;;;;16.30;2.95;;;14.00;99.90;;;;;;5033964;28;20064;-80
2023/03/31 02:49:12;;;;;;;18.88;3.03;;;13.70;99.90;;;;;;5031667;28;20037;-81
2023/03/31 02:51:48;;;;;;;13.68;2.65;;;13.60;99.90;;;;;;5032812;28;20465;-80
2023/03/31 02:54:45;;;;;;;17.75;3.35;;;13.50;99.90;;;;;;5033076;28;20504;-81
2023/03/31 02:57:48;;;;;;;15.27;2.47;;;13.30;99.90;;;;;;5042893;28;20037;-80
2023/03/31 03:00:42;;;;;;;12.55;2.47;;;13.30;99.90;;;;;;5033822;28;20026;-81
2023/03/31 03:03:14;;;;;;;10.35;2.33;;;13.30;99.90;;;;;;5032992;28;20080;-81
2023/03/31 03:06:12;;;;;;;13.32;2.78;;;13.40;99.90;;;;;;5032872;28;20125;-81
2023/03/31 03:08:49;;;;;;;14.65;2.50;;;13.40;99.90;;;;;;5033110;28;20362;-81
2023/03/31 03:11:20;;;;;;;;;;;13.40;99.90;;;;;;5033008;28;20054;-82
2023/03/31 03:13:56;;;;;;;14.18;2.50;;;13.40;99.90;;;;;;5032910;28;20036;-82
2023/03/31 03:16:26;;;;;;;15.68;2.63;;;13.30;99.90;;;;;;5031386;28;20492;-80
2023/03/31 03:19:01;;;;;;;15.93;2.80;;;13.20;99.90;;;;;;5032682;28;20049;-81
2023/03/31 03:21:27;;;;;;;12.70;2.90;;;13.10;99.90;;;;;;5014895;28;20418;-80
2023/03/31 03:23:53;;;;;;;16.25;2.60;;;13.10;99.90;;;;;;5032962;28;20087;-82
2023/03/31 03:26:22;;;;;;;25.85;3.30;;;13.20;99.90;;;;;;5032840;28;20040;-82
2023/03/31 03:28:49;;;;;;;17.05;2.60;;;13.30;99.90;;;;;;5032149;28;20024;-81
2023/03/31 03:31:16;;;;;;;22.30;4.18;;;13.30;99.90;;;;;;5032358;28;20453;-81
2023/03/31 03:33:42;;;;;;;16.50;3.15;;;13.40;99.90;;;;;;5032321;28;20493;-81
2023/03/31 03:36:09;;;;;;;22.10;2.72;;;13.40;99.90;;;;;;5031515;28;20057;-82
2023/03/31 03:38:35;;;;;;;10.27;2.50;;;13.40;99.90;;;;;;5030967;28;20338;-81
2023/03/31 03:41:08;;;;;;;18.33;2.88;;;13.40;99.90;;;;;;5030911;28;20028;-80
2023/03/31 03:43:37;;;;;;;18.00;2.70;;;13.20;99.90;;;;;;5031021;28;20030;-81
2023/03/31 03:46:04;;;;;;;12.75;2.20;;;13.10;99.90;;;;;;5032332;28;20033;-81
2023/03/31 03:48:32;;;;;;;15.05;2.92;;;13.20;99.90;;;;;;5030832;28;20408;-80
2023/03/31 03:51:05;;;;;;;13.25;3.10;;;13.10;99.90;;;;;;5032708;28;20144;-80
2023/03/31 03:53:31;;;;;;;12.88;2.38;;;13.00;99.90;;;;;;5032759;28;20076;-81
2023/03/31 03:55:58;;;;;;;13.85;2.85;;;13.00;99.90;;;;;;5032498;28;20388;-80
2023/03/31 03:58:24;;;;;;;14.60;2.63;;;13.00;99.90;;;;;;5032369;28;20054;-82
2023/03/31 04:00:50;;;;;;;19.85;2.65;;;13.00;99.90;;;;;;5032724;28;20049;-82
2023/03/31 04:03:17;;;;;;;17.20;2.53;;;13.00;99.90;;;;;;5030867;28;20112;-82
2023/03/31 04:05:48;;;;;;;;;;;13.00;99.90;;;;;;5031307;28;20036;-77
2023/03/31 04:08:14;;;;;;;17.90;2.97;;;13.10;99.90;;;;;;5032834;28;20067;-81
2023/03/31 04:10:45;;;;;;;15.20;3.08;;;13.00;99.90;;;;;;5047877;28;20048;-82
2023/03/31 04:13:11;;;;;;;12.55;2.88;;;12.90;99.90;;;;;;5051964;28;20051;-81
2023/03/31 04:15:39;;;;;;;19.92;2.92;;;12.90;99.90;;;;;;5052506;28;20419;-81
2023/03/31 04:18:05;;;;;;;19.85;3.20;;;12.70;99.90;;;;;;5036063;28;20362;-80
2023/03/31 04:20:31;;;;;;;13.00;2.63;;;12.60;99.90;;;;;;5068665;28;20037;-82
2023/03/31 04:22:57;;;;;;;16.00;2.87;;;12.70;99.90;;;;;;5053346;28;20771;-81
2023/03/31 04:25:23;;;;;;;14.63;3.20;;;12.70;99.90;;;;;;5052606;28;20114;-81
2023/03/31 04:27:54;;;;;;;13.37;2.60;;;12.70;99.90;;;;;;5052939;28;20106;-78
2023/03/31 04:30:32;;;;;;;18.13;2.95;;;12.70;99.90;;;;;;5035815;28;20017;-82
2023/03/31 04:33:05;;;;;;;22.38;2.85;;;12.50;99.90;;;;;;5052539;28;20329;-81
2023/03/31 04:35:48;;;;;;;11.95;2.03;;;12.50;99.90;;;;;;5034472;28;20044;-81
2023/03/31 04:38:18;;;;;;;13.75;2.60;;;12.50;99.90;;;;;;5034571;28;20029;-80
2023/03/31 04:40:49;;;;;;;16.88;3.03;;;12.50;99.90;;;;;;5056428;28;20516;-80
2023/03/31 04:43:18;;;;;;;16.77;2.50;;;12.50;99.90;;;;;;5038520;28;20035;-81
2023/03/31 04:45:45;;;;;;;16.42;2.50;;;12.60;99.90;;;;;;5056932;28;20105;-82
2023/03/31 04:48:11;;;;;;;14.55;2.90;;;12.50;99.90;;;;;;5022834;28;20389;-81
2023/03/31 04:50:39;;;;;;;20.55;3.03;;;12.50;99.90;;;;;;5056259;28;20033;-80
2023/03/31 04:53:07;;;;;;;14.52;2.92;;;12.40;99.90;;;;;;5055758;28;20048;-80
2023/03/31 04:55:34;;;;;;;12.50;2.75;;;12.50;99.90;;;;;;5057154;28;20019;-81
2023/03/31 04:58:00;;;;;;;17.20;3.30;;;12.50;99.90;;;;;;5041332;28;20095;-81
2023/03/31 05:00:27;;;;;;;16.27;3.45;;;12.50;99.90;;;;;;5056237;28;20353;-81
2023/03/31 05:02:53;;;;;;;19.35;3.10;;;12.60;99.90;;;;;;5056306;28;20036;-81
2023/03/31 05:05:20;;;;;;;13.30;2.80;;;12.60;99.90;;;;;;5055946;28;20021;-80
2023/03/31 05:07:47;;;;;;;11.13;2.65;;;12.60;99.90;;;;;;5055599;28;20033;-81
2023/03/31 05:10:13;;;;;;;22.77;3.10;;;12.70;99.90;;;;;;5055615;28;20477;-81
2023/03/31 05:12:39;;;;;;;17.27;3.20;;;12.80;99.90;;;;;;5055498;28;20146;-81
2023/03/31 05:15:07;;;;;;;16.95;2.78;;;12.80;99.90;;;;;;5055669;28;20469;-80
2023/03/31 05:17:35;;;;;;;16.05;2.90;;;12.90;99.90;;;;;;5056383;28;20031;-81
2023/03/31 05:20:05;;;;;;;18.13;3.13;;;12.90;99.90;;;;;;5056383;28;20082;-81
2023/03/31 05:22:34;;;;;;;14.70;3.05;;;12.90;99.90;;;;;;5055737;28;20021;-81
2023/03/31 05:25:06;;;;;;;19.90;3.60;;;12.80;99.90;;;;;;5055514;28;20025;-81
2023/03/31 05:27:32;;;;;;;20.42;3.00;;;12.80;99.90;;;;;;5037795;28;20033;-79
2023/03/31 05:30:00;;;;;;;23.02;2.97;;;12.90;99.90;;;;;;5055640;28;20032;-80
2023/03/31 05:32:27;;;;;;;12.07;2.50;;;13.10;99.90;;;;;;5055280;28;20028;-81
2023/03/31 05:34:56;;;;;;;21.30;3.80;;;13.30;99.90;;;;;;5055016;28;20480;-80
2023/03/31 05:37:24;;;;;;;15.25;2.90;;;13.50;99.90;;;;;;5055193;28;20360;-80
2023/03/31 05:39:51;;;;;;;16.70;3.05;;;13.50;99.90;;;;;;5055050;28;20422;-80
2023/03/31 05:42:18;;;;;;;20.10;3.10;;;13.90;99.90;;;;;;5055349;28;20033;-79
2023/03/31 05:44:45;;;;;;;15.48;2.58;;;15.00;99.90;;;;;;5055089;28;20028;-79
2023/03/31 05:47:12;;;;;;;15.57;2.55;;;16.00;99.90;;;;;;5055744;28;20044;-79
2023/03/31 05:49:39;;;;;;;17.70;2.67;;;16.90;99.90;;;;;;5055805;28;20102;-80
2023/03/31 05:52:06;;;;;;;14.48;3.00;;;17.10;99.90;;;;;;5035703;28;20033;-80
2023/03/31 05:54:32;;;;;;;18.63;3.20;;;16.70;99.90;;;;;;5053997;28;20021;-78
2023/03/31 05:56:58;;;;;;;13.85;2.55;;;16.30;99.90;;;;;;5036834;28;20099;-80
2023/03/31 05:59:25;;;;;;;14.00;2.45;;;16.10;99.90;;;;;;5054611;28;20025;-79
2023/03/31 06:01:51;;;;;;;14.68;2.80;;;16.00;99.90;;;;;;5055132;28;20436;-80
2023/03/31 06:04:17;;;;;;;14.98;3.15;;;16.20;99.90;;;;;;5054612;28;20021;-81
2023/03/31 06:06:44;;;;;;;13.13;2.30;;;16.50;99.90;;;;;;5046428;28;20093;-81
2023/03/31 06:09:11;;;;;;;16.70;2.60;;;17.20;99.90;;;;;;5036357;28;20412;-80
2023/03/31 06:11:38;;;;;;;13.40;2.40;;;17.30;99.90;;;;;;5052148;28;20167;-80
2023/03/31 06:14:05;;;;;;;17.88;2.58;;;17.30;99.90;;;;;;5052019;28;20122;-80
2023/03/31 06:16:31;;;;;;;17.92;2.88;;;17.90;99.90;;;;;;5054298;28;20021;-82
2023/03/31 06:18:57;;;;;;;15.82;3.00;;;19.20;99.90;;;;;;5019452;28;20044;-80
2023/03/31 06:21:23;;;;;;;19.42;2.60;;;19.30;99.90;;;;;;5053762;28;20109;-82
2023/03/31 06:23:53;;;;;;;12.23;2.63;;;19.20;99.90;;;;;;5054032;28;20029;-81
2023/03/31 06:26:21;;;;;;;11.90;2.22;;;19.70;99.90;;;;;;5036957;28;20029;-81
2023/03/31 06:28:48;;;;;;;14.23;2.90;;;20.00;99.90;;;;;;5036565;28;20108;-82
2023/03/31 06:31:15;;;;;;;;;;;19.20;99.90;;;;;;5054544;28;20036;-81
2023/03/31 06:33:43;;;;;;;10.77;2.67;;;19.50;99.90;;;;;;5053604;28;20008;-81
2023/03/31 06:36:09;;;;;;;;;;;18.90;99.90;;;;;;5054721;28;20052;-82
2023/03/31 06:38:37;;;;;;;;;;;19.60;99.90;;;;;;5054038;28;20363;-82
2023/03/31 06:41:03;;;;;;;17.23;2.90;;;20.40;99.90;;;;;;5053805;28;19944;-81
2023/03/31 06:43:29;;;;;;;;;;;19.80;99.90;;;;;;5054377;28;20037;-80
2023/03/31 06:45:56;;;;;;;14.25;3.00;;;20.40;99.90;;;;;;5053335;28;19905;-81
2023/03/31 06:48:24;;;;;;;14.77;2.50;;;21.10;99.90;;;;;;5053820;28;20120;-82
2023/03/31 06:50:51;;;;;;;16.80;2.78;;;22.50;99.90;;;;;;5054011;28;20017;-80
2023/03/31 06:53:17;;;;;;;55.70;5.20;;;23.40;99.90;;;;;;5053554;28;20056;-81
2023/03/31 06:55:44;;;;;;;12.13;2.58;;;23.70;99.90;;;;;;5053652;28;20449;-82
2023/03/31 06:58:12;;;;;;;11.48;2.47;;;25.00;99.90;;;;;;5054318;28;20510;-80
2023/03/31 07:00:38;;;;;;;13.73;2.47;;;24.80;99.90;;;;;;5052983;28;20438;-77
2023/03/31 07:03:05;;;;;;;14.68;2.60;;;24.90;99.90;;;;;;5053179;28;20029;-77
2023/03/31 07:05:31;;;;;;;15.70;2.30;;;25.40;99.90;;;;;;5053395;28;20134;-78
2023/03/31 07:07:58;;;;;;;15.15;2.75;;;26.00;99.90;;;;;;5053053;28;20037;-78
2023/03/31 07:10:27;;;;;;;12.95;2.67;;;26.30;99.90;;;;;;5052925;28;20068;-79
2023/03/31 07:12:55;;;;;;;12.57;2.58;;;27.60;99.90;;;;;;5052685;28;20056;-79
2023/03/31 07:15:21;;;;;;;10.25;2.38;;;27.40;99.90;;;;;;5052998;28;20382;-80
2023/03/31 07:17:49;;;;;;;15.60;2.28;;;26.90;99.90;;;;;;5034767;28;20044;-79
2023/03/31 07:20:19;;;;;;;15.65;2.30;;;26.90;99.90;;;;;;5053062;28;20017;-79
2023/03/31 07:22:47;;;;;;;15.05;2.17;;;25.50;99.90;;;;;;5034849;28;20123;-79
2023/03/31 07:25:17;;;;;;;13.00;2.88;;;25.70;99.90;;;;;;5034208;28;20075;-79
2023/03/31 07:27:44;;;;;;;9.73;2.50;;;27.00;99.90;;;;;;5038069;28;20064;-76
2023/03/31 07:30:15;;;;;;;9.18;2.72;;;27.90;99.90;;;;;;5054386;28;20507;-78
2023/03/31 07:32:42;;;;;;;14.88;3.00;;;27.00;99.90;;;;;;5019179;28;20029;-80
2023/03/31 07:35:12;;;;;;;14.77;2.80;;;26.40;99.90;;;;;;5053408;28;20021;-79
2023/03/31 07:37:42;;;;;;;9.93;2.30;;;25.00;99.90;;;;;;5053147;28;20461;-78
2023/03/31 07:40:12;;;;;;;15.63;2.78;;;25.00;99.90;;;;;;5052576;28;20055;-81
2023/03/31 07:42:41;;;;;;;12.02;2.15;;;24.90;99.90;;;;;;5052221;28;20025;-80
2023/03/31 07:45:08;;;;;;;11.65;2.55;;;25.20;99.90;;;;;;5034595;28;20025;-77
2023/03/31 07:47:38;;;;;;;11.27;2.42;;;24.40;99.90;;;;;;5052518;28;20130;-81
2023/03/31 07:50:06;;;;;;;13.10;2.63;;;23.90;99.90;;;;;;5051597;28;20159;-80
2023/03/31 07:52:33;;;;;;;16.42;3.40;;;23.80;99.90;;;;;;5051424;28;20429;-80
2023/03/31 07:54:59;;;;;;;14.35;2.92;;;24.00;99.90;;;;;;5051343;28;20497;-79
2023/03/31 07:57:25;;;;;;;14.60;2.45;;;23.80;99.90;;;;;;5051770;28;20033;-79
2023/03/31 07:59:52;;;;;;;16.50;2.50;;;23.40;99.90;;;;;;5052300;28;20021;-80
2023/03/31 08:02:18;;;;;;;13.75;2.60;;;22.20;99.90;;;;;;5051905;28;20029;-77
2023/03/31 08:04:45;;;;;;;12.13;2.65;;;22.20;99.90;;;;;;5051791;28;20465;-77
2023/03/31 08:07:14;;;;;;;17.73;2.97;;;22.50;99.90;;;;;;5051109;28;20033;-78
2023/03/31 08:09:43;;;;;;;13.48;2.90;;;22.50;99.90;;;;;;5051371;28;20052;-77
2023/03/31 08:12:10;;;;;;;15.23;2.78;;;22.50;99.90;;;;;;5051624;28;20024;-80
2023/03/31 08:14:36;;;;;;;12.35;2.47;;;22.70;99.90;;;;;;5050968;28;20017;-78
2023/03/31 08:17:02;;;;;;;17.05;3.05;;;22.60;99.90;;;;;;5034325;28;20035;-80
2023/03/31 08:19:28;;;;;;;;;;;22.90;99.90;;;;;;5052679;28;20567;-80
2023/03/31 08:21:55;;;;;;;12.77;2.45;;;23.00;99.90;;;;;;5051718;28;19913;-77
2023/03/31 08:24:21;;;;;;;12.35;2.38;;;23.10;99.90;;;;;;5033691;28;20040;-74
2023/03/31 08:26:47;;;;;;;15.40;2.60;;;22.50;99.90;;;;;;5051057;28;20033;-74
2023/03/31 08:29:13;;;;;;;13.82;2.42;;;21.70;99.90;;;;;;5051489;28;20039;-77
2023/03/31 08:31:41;;;;;;;13.07;2.35;;;20.90;99.90;;;;;;5052243;28;20017;-78
2023/03/31 08:34:08;;;;;;;19.48;3.47;;;21.60;99.90;;;;;;5051627;28;20498;-79
2023/03/31 08:36:34;;;;;;;16.23;2.63;;;22.30;99.90;;;;;;5051856;28;20051;-78
2023/03/31 08:39:00;;;;;;;11.00;2.83;;;22.70;99.90;;;;;;5033498;28;20124;-77
2023/03/31 08:41:35;;;;;;;13.38;2.95;;;22.50;99.90;;;;;;5051928;28;20025;-77
2023/03/31 08:44:07;;;;;;;21.15;2.70;;;22.50;99.90;;;;;;5033526;28;20040;-78
2023/03/31 08:46:34;;;;;;;14.30;2.63;;;22.20;99.90;;;;;;5051300;28;20021;-73
2023/03/31 08:49:02;;;;;;;;;;;21.90;99.90;;;;;;5052167;28;20037;-77
2023/03/31 08:51:37;;;;;;;14.70;2.60;;;21.50;99.90;;;;;;5051708;28;20005;-78
2023/03/31 08:54:07;;;;;;;14.00;2.92;;;21.20;99.90;;;;;;5051879;28;20024;-77
2023/03/31 08:56:37;;;;;;;15.23;3.20;;;21.70;99.90;;;;;;5051241;28;20033;-78
2023/03/31 08:59:37;;;;;;;15.52;2.78;;;21.90;99.90;;;;;;5051684;28;20021;-79
2023/03/31 09:02:17;;;;;;;15.20;2.60;;;21.00;99.90;;;;;;5049245;28;20037;-79
2023/03/31 09:05:34;;;;;;;16.55;2.97;;;21.20;99.90;;;;;;5051692;28;20036;-78
2023/03/31 09:08:32;;;;;;;16.25;2.97;;;21.30;99.90;;;;;;5009522;28;20354;-77
2023/03/31 09:11:31;;;;;;;15.32;2.60;;;21.30;99.90;;;;;;5009703;28;20054;-76
2023/03/31 09:14:25;;;;;;;18.65;2.83;;;21.30;99.90;;;;;;5009269;28;20030;-78
2023/03/31 09:16:54;;;;;;;14.63;3.20;;;21.20;99.90;;;;;;5009353;28;20414;-77
2023/03/31 09:19:37;;;;;;;12.45;2.60;;;21.30;99.90;;;;;;5009186;28;20137;-78
2023/03/31 09:22:10;;;;;;;14.68;2.38;;;21.50;99.90;;;;;;5009549;28;20109;-77
2023/03/31 09:25:19;;;;;;;18.13;3.05;;;20.70;99.90;;;;;;5009086;28;20109;-76
2023/03/31 09:27:46;;;;;;;14.55;2.20;;;20.60;99.90;;;;;;5012967;28;20088;-76
2023/03/31 09:30:26;;;;;;;12.98;2.20;;;20.30;99.90;;;;;;5012608;28;20042;-76
2023/03/31 09:33:13;;;;;;;18.33;2.95;;;20.20;99.90;;;;;;5013033;28;20029;-77
2023/03/31 09:35:38;;;;;;;;;;;20.30;99.90;;;;;;5013841;28;20018;-77
2023/03/31 09:38:05;;;;;;;13.43;2.28;;;19.80;99.90;;;;;;4996151;28;19921;-78
2023/03/31 09:40:33;;;;;;;14.68;2.65;;;19.60;99.90;;;;;;5012371;28;20025;-79
2023/03/31 09:43:05;;;;;;;13.85;2.25;;;19.90;99.90;;;;;;5012722;28;20029;-76
2023/03/31 09:45:34;;;;;;;11.45;2.35;;;19.90;99.90;;;;;;5014265;28;20126;-79
2023/03/31 09:48:12;;;;;;;15.48;2.70;;;20.00;99.90;;;;;;5014432;28;20037;-76
2023/03/31 09:50:46;;;;;;;12.73;2.15;;;20.20;99.90;;;;;;5014141;28;20030;-78
2023/03/31 09:53:33;;;;;;;12.82;2.20;;;20.40;99.90;;;;;;5018256;28;20052;-79
2023/03/31 09:56:07;;;;;;;13.93;2.33;;;20.50;99.90;;;;;;5033832;28;20023;-78
2023/03/31 09:58:41;;;;;;;14.88;2.30;;;20.50;99.90;;;;;;5034105;28;20064;-76
2023/03/31 10:01:09;;;;;;;14.35;2.53;;;20.40;99.90;;;;;;5034698;28;20140;-77
2023/03/31 10:03:52;;;;;;;44.03;4.78;;;20.10;99.90;;;;;;5033799;28;20116;-77
2023/03/31 10:06:20;;;;;;;15.98;2.78;;;19.80;99.90;;;;;;5034585;28;20161;-77
2023/03/31 10:09:04;;;;;;;16.45;2.70;;;19.90;99.90;;;;;;5033948;28;20049;-79
2023/03/31 10:11:31;;;;;;;15.02;2.38;;;20.20;99.90;;;;;;5033600;28;20045;-76
2023/03/31 10:14:23;;;;;;;14.60;2.30;;;20.30;99.90;;;;;;5033769;28;20083;-77
2023/03/31 10:16:54;;;;;;;12.85;2.60;;;20.10;99.90;;;;;;5033999;28;20099;-78
2023/03/31 10:19:29;;;;;;;9.40;2.40;;;20.20;99.90;;;;;;5032150;28;20457;-77
2023/03/31 10:22:13;;;;;;;15.48;3.00;;;19.90;99.90;;;;;;5033640;28;20034;-77
2023/03/31 10:24:44;;;;;;;21.30;2.47;;;19.90;99.90;;;;;;5032325;28;20025;-79
2023/03/31 10:27:23;;;;;;;20.17;3.08;;;20.20;99.90;;;;;;5033553;28;20048;-77
2023/03/31 10:29:56;;;;;;;13.60;2.67;;;20.10;99.90;;;;;;5032136;28;20136;-79
2023/03/31 10:32:37;;;;;;;15.38;2.55;;;20.40;99.90;;;;;;5033512;28;20113;-78
2023/03/31 10:35:22;;;;;;;27.60;3.03;;;20.40;99.90;;;;;;5032582;28;20025;-76
2023/03/31 10:37:53;;;;;;;11.63;2.30;;;20.30;99.90;;;;;;5017526;28;20087;-79
2023/03/31 10:40:31;;;;;;;16.05;2.67;;;20.40;99.90;;;;;;5033552;28;20260;-79
2023/03/31 10:43:05;;;;;;;15.13;2.65;;;20.60;99.90;;;;;;5034259;28;20454;-78
2023/03/31 10:45:40;;;;;;;22.83;4.13;;;20.70;99.90;;;;;;5034211;28;20033;-78
2023/03/31 10:48:20;;;;;;;21.33;2.80;;;20.90;99.90;;;;;;5033614;28;20044;-78
2023/03/31 10:50:47;;;;;;;10.13;2.15;;;20.60;99.90;;;;;;5033636;28;20388;-78
2023/03/31 10:53:16;;;;;;;14.70;3.38;;;20.20;99.90;;;;;;5033266;28;20100;-78
2023/03/31 10:56:21;;;;;;;14.05;2.92;;;20.50;99.90;;;;;;5031691;28;20021;-79
2023/03/31 10:59:05;;;;;;;20.80;2.83;;;20.30;99.90;;;;;;5032440;28;20093;-79
2023/03/31 11:02:11;;;;;;;13.43;2.75;;;20.00;99.90;;;;;;5033366;28;20030;-78
2023/03/31 11:04:56;;;;;;;;;;;19.80;99.90;;;;;;5031905;28;20029;-80
2023/03/31 11:07:47;;;;;;;20.50;2.45;;;19.60;99.90;;;;;;5038122;28;19935;-78
2023/03/31 11:10:28;;;;;;;16.38;2.28;;;20.20;99.90;;;;;;5042520;28;20043;-77
2023/03/31 11:13:03;;;;;;;16.90;3.15;;;20.50;99.90;;;;;;5052604;28;20111;-79
2023/03/31 11:15:33;;;;;;;20.13;3.40;;;20.70;99.90;;;;;;5052604;28;20367;-71
2023/03/31 11:18:40;;;;;;;12.80;2.47;;;20.60;99.90;;;;;;5052629;28;20040;-72
2023/03/31 11:21:29;;;;;;;14.00;2.53;;;20.70;99.90;;;;;;5053078;28;20482;-72
2023/03/31 11:24:00;;;;;;;16.13;3.35;;;20.80;99.90;;;;;;5052326;28;20040;-72
2023/03/31 11:26:45;;;;;;;15.57;3.83;;;20.90;99.90;;;;;;5052130;28;20021;-72
2023/03/31 11:29:45;;;;;;;17.13;2.90;;;20.70;99.90;;;;;;5052142;28;20199;-71
2023/03/31 11:32:52;;;;;;;20.55;4.28;;;20.20;99.90;;;;;;5034834;28;20020;-73
2023/03/31 11:35:45;;;;;;;16.92;2.78;;;19.90;99.90;;;;;;5034696;28;20043;-71
2023/03/31 11:38:34;;;;;;;13.07;2.35;;;19.70;99.90;;;;;;5052014;28;20029;-71
2023/03/31 11:41:35;;;;;;;16.98;2.67;;;19.90;99.90;;;;;;5052468;28;20080;-71
2023/03/31 11:44:08;;;;;;;17.23;3.40;;;20.20;99.90;;;;;;5052223;28;20033;-71
2023/03/31 11:46:44;;;;;;;16.73;2.38;;;20.00;99.90;;;;;;5052528;28;20079;-71
2023/03/31 11:49:37;;;;;;;12.10;2.30;;;20.10;99.90;;;;;;5051813;28;20021;-72
2023/03/31 11:52:15;;;;;;;15.15;2.45;;;20.40;99.90;;;;;;5034242;28;20025;-71
2023/03/31 11:54:54;;;;;;;17.25;2.97;;;19.90;99.90;;;;;;5034535;28;20032;-70
2023/03/31 11:57:31;;;;;;;15.35;2.92;;;20.10;99.90;;;;;;5052201;28;20033;-73
2023/03/31 12:00:06;;;;;;;15.73;2.95;;;20.30;99.90;;;;;;5052896;28;20020;-71
2023/03/31 12:03:03;;;;;;;17.52;2.40;;;20.50;99.90;;;;;;5052537;28;20085;-79
2023/03/31 12:05:36;;;;;;;19.65;2.20;;;20.70;99.90;;;;;;5051602;28;20036;-77
2023/03/31 12:08:14;;;;;;;10.13;2.55;;;20.60;99.90;;;;;;5052518;28;20107;-76
2023/03/31 12:11:05;;;;;;;14.85;2.80;;;20.70;99.90;;;;;;5053012;28;20115;-76
2023/03/31 12:13:38;;;;;;;13.30;2.50;;;20.60;99.90;;;;;;5052968;28;20381;-72
2023/03/31 12:16:27;;;;;;;18.23;2.15;;;21.00;99.90;;;;;;5052842;28;20060;-72
2023/03/31 12:19:26;;;;;;;11.48;2.47;;;21.10;99.90;;;;;;5053213;28;20029;-75
2023/03/31 12:22:11;;;;;;;18.75;2.80;;;21.00;99.90;;;;;;5015060;28;20362;-78
2023/03/31 12:24:41;;;;;;;14.75;2.33;;;20.80;99.90;;;;;;5053029;28;20017;-76
2023/03/31 12:27:40;;;;;;;14.52;2.55;;;20.70;99.90;;;;;;5052255;28;20473;-75
2023/03/31 12:30:30;;;;;;;12.52;2.45;;;20.30;99.90;;;;;;5052590;28;20032;-78
2023/03/31 12:33:19;;;;;;;16.08;2.70;;;20.40;99.90;;;;;;5052832;28;20032;-79
2023/03/31 12:36:30;;;;;;;13.27;2.65;;;20.30;99.90;;;;;;5025507;28;20179;-77
2023/03/31 12:39:14;;;;;;;14.93;2.83;;;20.50;99.90;;;;;;5032958;28;20025;-77
2023/03/31 12:42:05;;;;;;;15.05;2.40;;;20.40;99.90;;;;;;5032875;28;20053;-79
2023/03/31 12:45:13;;;;;;;13.35;2.45;;;20.30;99.90;;;;;;5032661;28;20025;-75
2023/03/31 12:48:11;;;;;;;16.98;2.28;;;20.20;99.90;;;;;;4991757;28;20046;-78
2023/03/31 12:50:51;;;;;;;16.13;2.80;;;20.20;99.90;;;;;;4991478;28;20375;-76
2023/03/31 12:53:32;;;;;;;17.88;2.58;;;20.50;99.90;;;;;;4974653;28;20027;-77
2023/03/31 12:55:59;;;;;;;13.98;2.22;;;20.50;99.90;;;;;;4995333;28;20022;-80
2023/03/31 12:58:32;;;;;;;;;;;20.70;99.90;;;;;;5010345;28;20061;-80
2023/03/31 13:01:06;;;;;;;22.30;2.67;;;20.60;99.90;;;;;;5011117;28;20388;-79
2023/03/31 13:04:05;;;;;;;17.55;2.40;;;20.60;99.90;;;;;;5014426;28;20068;-78
2023/03/31 13:06:37;;;;;;;22.70;3.13;;;20.50;99.90;;;;;;5013981;28;20145;-77
2023/03/31 13:09:26;;;;;;;18.95;2.58;;;20.70;99.90;;;;;;5015096;28;20050;-78
2023/03/31 13:11:56;;;;;;;16.00;1.92;;;20.80;99.90;;;;;;5013847;28;20497;-79
2023/03/31 13:14:36;;;;;;;13.60;2.17;;;20.60;99.90;;;;;;5013842;28;20025;-80
2023/03/31 13:17:34;;;;;;;16.70;2.63;;;20.30;99.90;;;;;;5014853;28;20057;-75